Time;durP1;ratioP1;P1;durP2;ratioP2;P2;SDS_P1;SDS_P2;PMS_P1;PMS_P2;Temp;Humidity;BMP_temperature;BMP_pressure;BME280_temperature;BME280_humidity;BME280_pressure;Samples;Min_cycle;Max_cycle;Signal;HPM_P1;HPM_P2
2023/06/03 00:00:55;;;;;;;2.57;1.00;;;12.90;99.90;;;;;;5072440;28;20296;-58
2023/06/03 00:03:23;;;;;;;1.50;0.93;;;12.80;99.90;;;;;;5063175;28;20253;-58
2023/06/03 00:05:51;;;;;;;2.17;1.10;;;12.70;99.90;;;;;;5072688;28;20751;-58
2023/06/03 00:08:20;;;;;;;2.33;1.10;;;12.50;99.90;;;;;;5073031;28;20226;-57
2023/06/03 00:10:48;;;;;;;1.00;0.80;;;12.40;99.90;;;;;;5072640;28;20681;-55
2023/06/03 00:13:17;;;;;;;3.20;1.00;;;12.30;99.90;;;;;;5072721;28;20230;-57
2023/06/03 00:15:45;;;;;;;2.60;0.80;;;12.10;99.90;;;;;;5072500;28;20230;-57
2023/06/03 00:18:15;;;;;;;1.40;1.00;;;12.20;99.90;;;;;;5072704;28;20736;-57
2023/06/03 00:20:47;;;;;;;1.60;0.80;;;12.00;99.90;;;;;;5072523;28;20221;-57
2023/06/03 00:23:16;;;;;;;2.10;1.10;;;12.10;99.90;;;;;;5072588;28;20704;-58
2023/06/03 00:25:44;;;;;;;1.60;0.87;;;11.90;99.90;;;;;;5072533;28;20704;-58
2023/06/03 00:28:12;;;;;;;2.90;1.07;;;11.90;99.90;;;;;;5072609;28;20254;-57
2023/06/03 00:30:41;;;;;;;1.87;1.00;;;11.80;99.90;;;;;;5075918;28;20230;-57
2023/06/03 00:33:09;;;;;;;1.60;0.90;;;11.90;99.90;;;;;;5092429;28;20225;-58
2023/06/03 00:35:38;;;;;;;1.63;1.03;;;11.70;99.90;;;;;;5092356;28;20236;-57
2023/06/03 00:38:06;;;;;;;1.10;1.00;;;11.60;99.90;;;;;;5074523;28;20236;-58
2023/06/03 00:40:34;;;;;;;1.77;1.20;;;11.50;99.90;;;;;;5092592;28;20227;-58
2023/06/03 00:43:02;;;;;;;2.07;1.00;;;11.60;99.90;;;;;;5092654;28;20217;-58
2023/06/03 00:45:30;;;;;;;1.73;1.00;;;11.80;99.90;;;;;;5093008;28;20225;-58
2023/06/03 00:47:59;;;;;;;1.17;1.00;;;11.50;99.90;;;;;;5078582;28;20233;-57
2023/06/03 00:50:28;;;;;;;1.83;1.00;;;11.70;99.90;;;;;;5096566;28;20229;-58
2023/06/03 00:52:57;;;;;;;1.67;1.00;;;12.00;99.90;;;;;;5096905;28;20468;-58
2023/06/03 00:55:25;;;;;;;1.73;0.80;;;11.90;99.90;;;;;;5096209;28;20221;-58
2023/06/03 00:57:54;;;;;;;0.87;0.73;;;12.00;99.90;;;;;;5095372;28;20229;-58
2023/06/03 01:00:22;;;;;;;1.07;0.90;;;12.10;99.90;;;;;;5095910;28;20225;-58
2023/06/03 01:02:50;;;;;;;1.50;0.90;;;12.00;99.90;;;;;;5094503;28;20249;-58
2023/06/03 01:05:20;;;;;;;1.20;0.90;;;11.90;99.90;;;;;;5096296;28;20226;-57
2023/06/03 01:08:00;;;;;;;2.83;1.10;;;11.70;99.90;;;;;;5096018;28;20591;-58
2023/06/03 01:10:36;;;;;;;1.23;0.90;;;11.60;99.90;;;;;;5078073;28;20714;-57
2023/06/03 01:13:09;;;;;;;0.97;0.80;;;11.50;99.90;;;;;;5096250;28;20227;-58
2023/06/03 01:15:39;;;;;;;1.40;0.90;;;11.30;99.90;;;;;;5096099;28;20230;-57
2023/06/03 01:18:07;;;;;;;2.83;0.83;;;11.30;99.90;;;;;;5096177;28;20252;-57
2023/06/03 01:20:37;;;;;;;2.33;0.90;;;11.10;99.90;;;;;;5077748;28;20228;-58
2023/06/03 01:23:19;;;;;;;1.70;0.93;;;11.10;99.90;;;;;;5096137;28;20694;-57
2023/06/03 01:25:50;;;;;;;1.60;1.17;;;10.90;99.90;;;;;;5069262;28;20264;-57
2023/06/03 01:28:20;;;;;;;1.93;1.00;;;10.90;99.90;;;;;;5077616;28;20250;-58
2023/06/03 01:30:49;;;;;;;2.60;1.00;;;10.70;99.90;;;;;;5095326;28;20274;-58
2023/06/03 01:33:19;;;;;;;1.63;1.00;;;10.70;99.90;;;;;;5095780;28;20220;-58
2023/06/03 01:35:49;;;;;;;1.53;0.90;;;10.70;99.90;;;;;;5076469;28;20232;-58
2023/06/03 01:38:19;;;;;;;2.03;1.00;;;10.60;99.90;;;;;;5095720;28;20232;-58
2023/06/03 01:40:48;;;;;;;1.87;1.00;;;10.70;99.90;;;;;;5077188;28;20220;-58
2023/06/03 01:43:16;;;;;;;1.27;1.00;;;10.70;99.90;;;;;;5078697;28;20278;-57
2023/06/03 01:45:47;;;;;;;2.17;1.00;;;10.70;99.90;;;;;;5077395;28;20240;-57
2023/06/03 01:48:15;;;;;;;1.57;1.07;;;10.60;99.90;;;;;;5095594;28;20706;-57
2023/06/03 01:50:44;;;;;;;2.83;1.10;;;10.50;99.90;;;;;;5068532;28;20229;-58
2023/06/03 01:53:15;;;;;;;1.13;1.00;;;10.50;99.90;;;;;;5095401;28;20243;-58
2023/06/03 01:55:47;;;;;;;3.77;1.20;;;10.40;99.90;;;;;;5077214;28;20799;-57
2023/06/03 01:58:17;;;;;;;1.67;1.10;;;10.30;99.90;;;;;;5076386;28;20234;-58
2023/06/03 02:00:45;;;;;;;1.93;0.90;;;10.30;99.90;;;;;;5076675;28;20705;-58
2023/06/03 02:03:13;;;;;;;1.10;1.00;;;10.30;99.90;;;;;;5095234;28;20222;-58
2023/06/03 02:05:42;;;;;;;3.27;1.10;;;10.20;99.90;;;;;;5076018;28;20687;-60
2023/06/03 02:08:10;;;;;;;0.80;0.80;;;10.20;99.90;;;;;;5095460;28;20221;-60
2023/06/03 02:10:38;;;;;;;3.03;0.97;;;10.40;99.90;;;;;;5095117;28;20580;-60
2023/06/03 02:13:08;;;;;;;1.77;0.97;;;10.40;99.90;;;;;;5076994;28;20224;-60
2023/06/03 02:15:38;;;;;;;1.67;0.93;;;10.40;99.90;;;;;;5094943;28;20227;-60
2023/06/03 02:18:06;;;;;;;1.10;1.00;;;10.40;99.90;;;;;;5077016;28;20321;-60
2023/06/03 02:20:35;;;;;;;1.20;1.10;;;10.30;99.90;;;;;;5073244;28;20227;-60
2023/06/03 02:23:03;;;;;;;5.43;1.30;;;10.30;99.90;;;;;;5074818;28;20245;-60
2023/06/03 02:25:32;;;;;;;1.47;1.10;;;10.10;99.90;;;;;;5074561;28;20280;-60
2023/06/03 02:28:02;;;;;;;2.00;1.20;;;10.10;99.90;;;;;;5074688;28;20313;-58
2023/06/03 02:30:32;;;;;;;1.23;1.10;;;9.90;99.90;;;;;;5075068;28;20259;-58
2023/06/03 02:33:01;;;;;;;1.13;1.00;;;9.90;99.90;;;;;;5086173;28;20306;-57
2023/06/03 02:35:29;;;;;;;1.53;0.90;;;9.80;99.90;;;;;;5067836;28;20231;-57
2023/06/03 02:37:57;;;;;;;1.67;1.07;;;9.90;99.90;;;;;;5074306;28;20274;-58
2023/06/03 02:40:25;;;;;;;8.33;1.37;;;9.80;99.90;;;;;;5074345;28;20245;-58
2023/06/03 02:42:53;;;;;;;2.67;1.23;;;9.90;99.90;;;;;;5074639;28;20224;-57
2023/06/03 02:45:21;;;;;;;2.20;1.20;;;9.80;99.90;;;;;;5074531;28;20644;-58
2023/06/03 02:47:51;;;;;;;4.93;1.20;;;9.80;99.90;;;;;;5070695;28;20273;-58
2023/06/03 02:50:19;;;;;;;3.13;1.00;;;9.70;99.90;;;;;;5076262;28;20228;-56
2023/06/03 02:52:47;;;;;;;2.73;1.10;;;9.80;99.90;;;;;;5075704;28;20231;-57
2023/06/03 02:55:16;;;;;;;2.00;0.93;;;9.80;99.90;;;;;;5093936;28;20254;-58
2023/06/03 02:57:44;;;;;;;1.33;1.10;;;9.80;99.90;;;;;;5075573;28;20227;-56
2023/06/03 03:00:13;;;;;;;2.07;1.10;;;9.70;99.90;;;;;;5075480;28;20728;-58
2023/06/03 03:02:42;;;;;;;1.87;1.30;;;9.60;99.90;;;;;;5085446;28;20230;-58
2023/06/03 03:05:11;;;;;;;2.40;0.90;;;9.50;99.90;;;;;;5069777;28;20224;-58
2023/06/03 03:07:39;;;;;;;1.67;1.00;;;9.40;99.90;;;;;;5073501;28;20251;-58
2023/06/03 03:10:08;;;;;;;1.40;1.13;;;9.50;99.90;;;;;;5055759;28;20303;-58
2023/06/03 03:12:37;;;;;;;1.43;1.00;;;9.60;99.90;;;;;;5055743;28;20248;-58
2023/06/03 03:15:07;;;;;;;0.90;0.90;;;9.50;99.90;;;;;;5069294;28;20725;-57
2023/06/03 03:17:35;;;;;;;2.03;1.40;;;9.50;99.90;;;;;;5075460;28;20296;-59
2023/06/03 03:20:06;;;;;;;3.03;1.20;;;9.60;99.90;;;;;;5075913;28;20230;-58
2023/06/03 03:22:40;;;;;;;1.87;1.00;;;9.50;99.90;;;;;;5075349;28;20291;-58
2023/06/03 03:25:09;;;;;;;1.20;1.10;;;9.70;99.90;;;;;;5093814;28;20219;-57
2023/06/03 03:27:38;;;;;;;1.77;0.90;;;9.80;99.90;;;;;;5075553;28;20238;-58
2023/06/03 03:30:07;;;;;;;1.63;1.10;;;9.70;99.90;;;;;;5082725;28;20219;-57
2023/06/03 03:32:37;;;;;;;1.63;1.20;;;9.70;99.90;;;;;;5092170;28;20297;-58
2023/06/03 03:35:13;;;;;;;2.60;1.00;;;9.70;99.90;;;;;;5059290;28;20231;-57
2023/06/03 03:37:44;;;;;;;1.47;1.30;;;9.70;99.90;;;;;;5075130;28;20230;-58
2023/06/03 03:40:19;;;;;;;2.80;0.90;;;9.80;99.90;;;;;;5075299;28;20231;-58
2023/06/03 03:42:49;;;;;;;2.60;1.50;;;9.90;99.90;;;;;;5075180;28;20694;-58
2023/06/03 03:45:21;;;;;;;2.03;1.20;;;9.80;99.90;;;;;;5075030;28;20273;-58
2023/06/03 03:47:50;;;;;;;1.73;1.13;;;9.70;99.90;;;;;;5074958;28;20694;-58
2023/06/03 03:50:40;;;;;;;1.60;1.47;;;9.70;99.90;;;;;;5075185;28;20249;-56
2023/06/03 03:53:13;;;;;;;1.50;1.10;;;9.80;99.90;;;;;;5075281;28;20247;-57
2023/06/03 03:55:43;;;;;;;2.13;0.90;;;9.90;99.90;;;;;;5074824;28;20235;-58
2023/06/03 03:58:28;;;;;;;2.20;1.17;;;9.90;99.90;;;;;;5075417;28;20298;-58
2023/06/03 04:01:01;;;;;;;1.10;1.00;;;10.00;99.90;;;;;;5074464;28;20251;-57
2023/06/03 04:03:35;;;;;;;3.20;1.30;;;10.20;99.90;;;;;;5074756;28;20246;-57
2023/06/03 04:06:05;;;;;;;2.53;1.30;;;10.10;99.90;;;;;;5074762;28;20568;-57
2023/06/03 04:08:43;;;;;;;2.07;1.20;;;10.10;99.90;;;;;;5092873;28;20602;-58
2023/06/03 04:11:21;;;;;;;1.53;1.33;;;10.00;99.90;;;;;;5093015;28;20220;-58
2023/06/03 04:13:50;;;;;;;2.10;1.10;;;10.00;99.90;;;;;;5074386;28;20726;-58
2023/06/03 04:16:57;;;;;;;2.50;1.10;;;10.20;99.90;;;;;;5073076;28;20232;-58
2023/06/03 04:19:37;;;;;;;1.67;1.20;;;10.40;99.90;;;;;;5074615;28;20224;-58
2023/06/03 04:22:21;;;;;;;1.63;1.20;;;10.60;99.90;;;;;;5064355;28;20252;-58
2023/06/03 04:24:57;;;;;;;2.37;1.30;;;10.60;99.90;;;;;;5051271;28;20284;-59
2023/06/03 04:27:30;;;;;;;1.20;1.10;;;10.70;99.90;;;;;;5051290;28;20324;-58
2023/06/03 04:30:00;;;;;;;2.10;1.40;;;10.70;99.90;;;;;;5051391;28;20240;-56
2023/06/03 04:32:29;;;;;;;1.63;1.10;;;10.70;99.90;;;;;;5041600;28;20230;-58
2023/06/03 04:34:58;;;;;;;1.17;1.03;;;10.80;99.90;;;;;;5048048;28;20268;-58
2023/06/03 04:37:27;;;;;;;1.83;1.30;;;10.80;99.90;;;;;;5042619;28;20221;-56
2023/06/03 04:39:58;;;;;;;2.57;1.30;;;10.90;99.90;;;;;;5052507;28;20709;-57
2023/06/03 04:42:30;;;;;;;1.10;1.00;;;11.10;99.90;;;;;;5050966;28;20283;-57
2023/06/03 04:45:01;;;;;;;2.57;1.27;;;11.20;99.90;;;;;;5051068;28;20225;-57
2023/06/03 04:47:33;;;;;;;2.77;1.33;;;11.40;99.90;;;;;;5050905;28;20335;-58
2023/06/03 04:50:04;;;;;;;1.83;1.13;;;11.60;99.90;;;;;;5052400;28;20623;-57
2023/06/03 04:52:34;;;;;;;4.27;1.53;;;11.70;99.90;;;;;;5050780;28;20284;-58
2023/06/03 04:55:04;;;;;;;2.53;1.80;;;11.90;99.90;;;;;;5050949;28;20609;-58
2023/06/03 04:57:37;;;;;;;1.40;1.30;;;12.00;99.90;;;;;;5052248;28;20647;-58
2023/06/03 05:00:09;;;;;;;4.23;1.50;;;12.20;99.90;;;;;;5051021;28;20223;-58
2023/06/03 05:02:37;;;;;;;2.07;1.50;;;12.60;99.90;;;;;;5041891;28;20917;-56
2023/06/03 05:05:07;;;;;;;2.00;1.17;;;12.70;99.90;;;;;;5037084;28;20219;-58
2023/06/03 05:07:35;;;;;;;1.63;1.40;;;12.80;99.90;;;;;;5042407;28;20227;-57
2023/06/03 05:10:07;;;;;;;2.23;1.40;;;13.00;99.90;;;;;;5030998;28;20226;-56
2023/06/03 05:12:36;;;;;;;1.97;1.20;;;13.10;99.90;;;;;;5030824;28;20290;-58
2023/06/03 05:15:05;;;;;;;1.80;1.57;;;13.10;99.90;;;;;;5030843;28;20236;-57
2023/06/03 05:17:34;;;;;;;1.80;1.37;;;13.60;99.90;;;;;;5042869;28;20234;-57
2023/06/03 05:20:05;;;;;;;2.80;1.40;;;13.70;99.90;;;;;;5049891;28;20314;-58
2023/06/03 05:22:33;;;;;;;2.30;1.50;;;14.20;99.90;;;;;;5042016;28;20586;-58
2023/06/03 05:25:02;;;;;;;2.10;1.30;;;14.30;99.90;;;;;;5050850;28;20231;-58
2023/06/03 05:27:34;;;;;;;2.53;1.43;;;14.30;99.90;;;;;;5050541;28;20230;-58
2023/06/03 05:30:03;;;;;;;2.13;1.70;;;14.50;99.90;;;;;;5050741;28;20281;-58
2023/06/03 05:32:31;;;;;;;1.90;1.50;;;14.70;99.90;;;;;;5028533;28;20232;-58
2023/06/03 05:34:59;;;;;;;3.00;1.60;;;14.90;99.90;;;;;;5025543;28;20311;-57
2023/06/03 05:37:27;;;;;;;1.70;1.47;;;15.20;99.90;;;;;;5022547;28;20225;-59
2023/06/03 05:39:55;;;;;;;1.60;1.50;;;15.50;99.90;;;;;;5017893;28;20229;-58
2023/06/03 05:42:23;;;;;;;2.10;1.40;;;16.00;99.90;;;;;;5018415;28;20303;-58
2023/06/03 05:44:52;;;;;;;3.30;1.20;;;15.90;99.90;;;;;;5014592;28;20221;-59
2023/06/03 05:47:20;;;;;;;3.57;1.70;;;16.00;99.90;;;;;;5024733;28;20236;-58
2023/06/03 05:49:48;;;;;;;1.80;1.50;;;16.10;99.90;;;;;;5034000;28;20328;-58
2023/06/03 05:52:17;;;;;;;1.97;1.73;;;16.20;99.90;;;;;;5019301;28;20618;-59
2023/06/03 05:54:45;;;;;;;2.30;1.40;;;16.40;99.90;;;;;;5014166;28;20229;-58
2023/06/03 05:57:16;;;;;;;1.50;1.33;;;16.70;99.90;;;;;;5014364;28;20755;-59
2023/06/03 05:59:45;;;;;;;2.07;1.40;;;16.80;99.90;;;;;;5014228;28;20256;-58
2023/06/03 06:02:15;;;;;;;1.83;1.37;;;16.80;99.90;;;;;;5023118;28;20232;-58
2023/06/03 06:04:43;;;;;;;2.87;1.60;;;17.20;99.90;;;;;;5023596;28;20328;-58
2023/06/03 06:07:11;;;;;;;3.30;1.80;;;17.40;99.90;;;;;;5026475;28;20596;-58
2023/06/03 06:09:40;;;;;;;1.57;1.40;;;17.70;99.90;;;;;;5033788;28;20274;-57
2023/06/03 06:12:09;;;;;;;2.03;1.60;;;18.00;99.90;;;;;;5033618;28;20228;-58
2023/06/03 06:14:37;;;;;;;2.03;1.37;;;18.00;99.90;;;;;;5033622;28;20648;-58
2023/06/03 06:17:06;;;;;;;2.17;1.30;;;18.10;99.90;;;;;;5032817;28;20723;-57
2023/06/03 06:19:36;;;;;;;2.43;1.50;;;18.50;99.90;;;;;;5032202;28;20615;-59
2023/06/03 06:22:06;;;;;;;1.40;1.10;;;18.50;99.90;;;;;;5038379;28;20252;-57
2023/06/03 06:24:35;;;;;;;1.93;1.30;;;18.60;99.90;;;;;;5054316;28;20280;-58
2023/06/03 06:27:04;;;;;;;4.97;1.40;;;18.90;99.90;;;;;;5045819;28;20218;-58
2023/06/03 06:29:33;;;;;;;2.13;1.40;;;18.90;99.90;;;;;;5041727;28;20359;-58
2023/06/03 06:32:03;;;;;;;2.73;1.33;;;19.10;99.90;;;;;;5043930;28;20692;-58
2023/06/03 06:34:36;;;;;;;2.07;1.30;;;19.20;99.90;;;;;;5043224;28;20738;-59
2023/06/03 06:37:09;;;;;;;3.80;1.40;;;19.40;99.90;;;;;;5059221;28;20708;-59
2023/06/03 06:39:49;;;;;;;3.77;1.40;;;19.70;99.90;;;;;;5050916;28;20609;-58
2023/06/03 06:42:31;;;;;;;3.87;1.57;;;20.00;99.90;;;;;;5060994;28;20567;-58
2023/06/03 06:45:16;;;;;;;3.77;1.27;;;20.20;99.90;;;;;;5048108;28;20246;-59
2023/06/03 06:47:47;;;;;;;2.40;1.40;;;20.30;99.90;;;;;;5051375;28;20230;-58
2023/06/03 06:50:34;;;;;;;1.93;1.33;;;20.20;99.90;;;;;;5053031;28;20224;-58
2023/06/03 06:53:04;;;;;;;1.83;1.13;;;20.20;99.90;;;;;;5053009;28;20610;-58
2023/06/03 06:55:42;;;;;;;3.60;1.20;;;20.20;99.90;;;;;;5052811;28;20599;-58
2023/06/03 06:58:14;;;;;;;2.93;1.00;;;20.90;99.90;;;;;;5051426;28;20661;-59
2023/06/03 07:00:43;;;;;;;0.80;0.70;;;20.70;99.90;;;;;;5034037;28;20241;-58
2023/06/03 07:03:13;;;;;;;1.57;0.80;;;20.40;99.90;;;;;;5041806;28;20273;-58
2023/06/03 07:05:43;;;;;;;1.57;0.80;;;20.60;99.90;;;;;;5042813;28;20227;-58
2023/06/03 07:08:12;;;;;;;1.43;0.90;;;20.50;99.90;;;;;;5051805;28;20230;-58
2023/06/03 07:10:40;;;;;;;2.47;1.20;;;20.90;99.90;;;;;;5040458;28;20235;-58
2023/06/03 07:13:09;;;;;;;2.50;0.90;;;21.40;99.90;;;;;;5037947;28;20232;-59
2023/06/03 07:15:40;;;;;;;3.50;1.03;;;21.60;99.90;;;;;;5032032;28;20319;-59
2023/06/03 07:18:10;;;;;;;1.63;0.70;;;21.80;99.90;;;;;;5044364;28;20224;-58
2023/06/03 07:20:41;;;;;;;1.70;0.80;;;21.90;99.90;;;;;;5032424;28;20240;-58
2023/06/03 07:23:12;;;;;;;2.70;1.00;;;21.80;99.90;;;;;;5040425;28;20711;-59
2023/06/03 07:25:43;;;;;;;2.53;1.00;;;21.90;99.90;;;;;;5049619;28;20307;-58
2023/06/03 07:28:13;;;;;;;1.33;0.90;;;21.90;98.20;;;;;;5035769;28;20223;-56
2023/06/03 07:30:42;;;;;;;2.83;0.93;;;21.80;99.90;;;;;;5044546;28;20969;-54
2023/06/03 07:33:22;;;;;;;2.67;0.80;;;22.30;99.90;;;;;;5046239;28;20326;-52
2023/06/03 07:35:53;;;;;;;0.93;0.70;;;22.50;99.90;;;;;;5024455;28;20226;-57
2023/06/03 07:38:55;;;;;;;2.27;0.90;;;22.40;97.70;;;;;;5050381;28;20252;-58
2023/06/03 07:41:36;;;;;;;1.23;0.80;;;22.30;98.70;;;;;;5052432;28;20281;-57
2023/06/03 07:44:07;;;;;;;1.57;0.97;;;22.90;99.00;;;;;;5053376;28;20224;-58
2023/06/03 07:46:41;;;;;;;1.27;0.80;;;23.20;96.90;;;;;;5025233;28;20224;-57
2023/06/03 07:49:11;;;;;;;3.47;0.97;;;23.30;98.60;;;;;;5025445;28;20251;-51
2023/06/03 07:51:45;;;;;;;1.50;0.90;;;23.30;97.30;;;;;;5025811;28;20750;-57
2023/06/03 07:54:15;;;;;;;1.13;0.70;;;23.30;97.70;;;;;;5026128;28;20224;-58
2023/06/03 07:56:43;;;;;;;1.80;1.00;;;23.80;97.70;;;;;;5023272;28;20802;-57
2023/06/03 07:59:13;;;;;;;1.47;0.87;;;23.40;96.60;;;;;;5026590;28;20235;-57
2023/06/03 08:01:42;;;;;;;2.00;0.90;;;23.10;95.00;;;;;;5026892;28;20640;-53
2023/06/03 08:04:27;;;;;;;1.63;0.80;;;23.10;94.70;;;;;;5026486;28;20246;-54
2023/06/03 08:06:56;;;;;;;0.97;0.77;;;23.30;96.00;;;;;;5025361;28;20299;-58
2023/06/03 08:09:29;;;;;;;1.57;0.80;;;23.40;95.30;;;;;;5026570;28;20224;-55
2023/06/03 08:11:58;;;;;;;1.00;0.70;;;23.50;95.20;;;;;;5026685;28;20339;-55
2023/06/03 08:14:27;;;;;;;1.60;0.70;;;23.20;91.40;;;;;;5026132;28;20233;-58
2023/06/03 08:16:57;;;;;;;0.80;0.70;;;22.90;92.00;;;;;;5024666;28;20278;-58
2023/06/03 08:19:25;;;;;;;0.80;0.63;;;23.00;94.10;;;;;;5025797;28;20227;-58
2023/06/03 08:21:53;;;;;;;2.70;1.00;;;23.10;93.70;;;;;;5028132;28;20267;-57
2023/06/03 08:24:21;;;;;;;1.47;0.90;;;23.60;95.20;;;;;;5044638;28;20212;-54
2023/06/03 08:26:51;;;;;;;1.03;0.80;;;24.00;91.80;;;;;;5042783;28;20223;-56
2023/06/03 08:29:19;;;;;;;2.33;0.90;;;23.60;92.60;;;;;;5045101;28;20684;-55
2023/06/03 08:31:47;;;;;;;2.50;0.90;;;23.10;92.30;;;;;;5045511;28;20571;-57
2023/06/03 08:34:15;;;;;;;1.57;0.80;;;23.30;92.70;;;;;;5045454;28;20254;-52
2023/06/03 08:36:44;;;;;;;2.83;0.90;;;23.40;93.00;;;;;;5045026;28;20227;-55
2023/06/03 08:39:12;;;;;;;4.70;0.80;;;24.20;94.10;;;;;;5044897;28;20791;-55
2023/06/03 08:41:43;;;;;;;2.63;0.83;;;24.00;93.00;;;;;;5049093;28;20227;-57
2023/06/03 08:44:21;;;;;;;1.33;0.90;;;23.90;91.60;;;;;;5048214;28;20875;-53
2023/06/03 08:46:59;;;;;;;1.20;1.10;;;23.70;89.10;;;;;;5048320;28;20724;-57
2023/06/03 08:49:41;;;;;;;1.27;0.70;;;23.50;89.70;;;;;;5048858;28;20227;-53
2023/06/03 08:52:10;;;;;;;3.13;0.93;;;23.50;90.60;;;;;;5044880;28;20228;-52
2023/06/03 08:54:41;;;;;;;2.17;0.90;;;23.30;91.50;;;;;;5028062;28;20239;-56
2023/06/03 08:57:19;;;;;;;1.47;1.00;;;23.00;90.70;;;;;;5042843;28;20234;-56
2023/06/03 08:59:52;;;;;;;1.20;0.90;;;23.50;91.00;;;;;;5044906;28;20300;-58
2023/06/03 09:02:21;;;;;;;2.40;0.97;;;23.90;90.70;;;;;;5044105;28;20725;-57
2023/06/03 09:04:50;;;;;;;0.83;0.80;;;23.80;89.80;;;;;;5044194;28;21145;-54
2023/06/03 09:07:20;;;;;;;2.00;1.00;;;23.60;89.70;;;;;;5051752;28;20223;-51
2023/06/03 09:09:51;;;;;;;1.33;0.80;;;24.10;90.90;;;;;;5052681;28;20238;-52
2023/06/03 09:12:19;;;;;;;2.10;0.93;;;24.30;91.50;;;;;;5053129;28;20236;-55
2023/06/03 09:14:49;;;;;;;1.33;0.90;;;23.80;88.80;;;;;;5051509;28;20233;-52
2023/06/03 09:17:18;;;;;;;1.93;0.90;;;23.50;84.90;;;;;;5045042;28;20227;-56
2023/06/03 09:19:47;;;;;;;2.60;1.00;;;23.20;89.00;;;;;;5050522;28;21442;-54
2023/06/03 09:22:16;;;;;;;2.40;1.10;;;23.60;90.10;;;;;;5050145;28;20236;-56
2023/06/03 09:24:44;;;;;;;1.90;0.80;;;24.00;89.20;;;;;;5050139;28;20224;-51
2023/06/03 09:27:12;;;;;;;2.00;0.90;;;24.10;87.80;;;;;;5052504;28;20222;-58
2023/06/03 09:29:42;;;;;;;1.23;1.00;;;23.50;89.90;;;;;;5064262;28;20675;-59
2023/06/03 09:32:11;;;;;;;2.63;0.80;;;23.60;88.20;;;;;;5068222;28;20234;-59
2023/06/03 09:34:42;;;;;;;2.30;0.97;;;23.60;88.20;;;;;;5062959;28;20220;-58
2023/06/03 09:37:12;;;;;;;1.57;0.90;;;23.70;87.70;;;;;;5063186;28;20223;-58
2023/06/03 09:39:41;;;;;;;1.70;1.23;;;23.60;87.50;;;;;;5065000;28;20223;-58
2023/06/03 09:42:10;;;;;;;1.30;1.00;;;23.80;89.70;;;;;;5064742;28;20752;-59
2023/06/03 09:44:40;;;;;;;2.23;0.70;;;23.50;88.50;;;;;;5061776;28;20237;-58
2023/06/03 09:47:08;;;;;;;2.13;1.20;;;23.90;88.70;;;;;;5065464;28;20229;-58
2023/06/03 09:49:38;;;;;;;2.33;0.70;;;23.90;88.70;;;;;;5073471;28;20220;-59
2023/06/03 09:52:31;;;;;;;2.33;1.00;;;24.10;89.80;;;;;;5060956;28;20221;-59
2023/06/03 09:55:04;;;;;;;3.40;1.00;;;24.60;89.30;;;;;;5066491;28;20640;-58
2023/06/03 09:57:33;;;;;;;2.00;0.83;;;24.80;89.40;;;;;;5064420;28;20572;-59
2023/06/03 10:00:07;;;;;;;1.73;1.13;;;24.80;83.90;;;;;;5064824;28;20248;-59
2023/06/03 10:02:37;;;;;;;2.33;1.33;;;24.80;84.80;;;;;;5094672;28;20702;-59
2023/06/03 10:05:25;;;;;;;1.37;0.90;;;24.60;85.80;;;;;;5079856;28;20311;-58
2023/06/03 10:07:54;;;;;;;1.20;1.03;;;24.40;85.90;;;;;;5093685;28;20228;-58
2023/06/03 10:10:22;;;;;;;3.27;1.07;;;24.60;86.40;;;;;;5093667;28;20245;-58
2023/06/03 10:12:51;;;;;;;2.10;0.90;;;25.00;85.60;;;;;;5092332;28;20221;-56
2023/06/03 10:15:35;;;;;;;2.00;1.10;;;25.10;83.70;;;;;;5092428;28;20626;-58
2023/06/03 10:18:03;;;;;;;1.93;1.17;;;24.90;82.80;;;;;;5087161;28;20448;-56
2023/06/03 10:20:34;;;;;;;1.00;0.90;;;24.70;82.30;;;;;;5092463;28;20609;-57
2023/06/03 10:23:03;;;;;;;2.00;0.80;;;24.50;83.40;;;;;;5087476;28;20703;-57
2023/06/03 10:25:33;;;;;;;1.33;0.90;;;24.50;83.70;;;;;;5091092;28;20768;-57
2023/06/03 10:28:01;;;;;;;1.17;0.90;;;24.50;83.50;;;;;;5082233;28;20241;-58
2023/06/03 10:30:31;;;;;;;2.03;0.90;;;24.70;83.00;;;;;;5093582;28;20228;-57
2023/06/03 10:33:03;;;;;;;4.03;1.00;;;24.40;81.90;;;;;;5091771;28;20307;-57
2023/06/03 10:35:33;;;;;;;3.80;0.80;;;24.30;83.60;;;;;;5086748;28;20224;-58
2023/06/03 10:38:03;;;;;;;2.30;0.90;;;24.40;84.70;;;;;;5092006;28;20682;-57
2023/06/03 10:40:31;;;;;;;2.20;0.80;;;24.50;85.70;;;;;;5086310;28;20304;-57
2023/06/03 10:42:59;;;;;;;1.20;0.90;;;24.70;82.40;;;;;;5076740;28;20225;-57
2023/06/03 10:45:28;;;;;;;2.03;0.70;;;24.90;84.60;;;;;;5084850;28;20236;-57
2023/06/03 10:48:01;;;;;;;1.13;0.80;;;25.30;83.90;;;;;;5086386;28;20715;-58
2023/06/03 10:50:41;;;;;;;1.37;1.03;;;25.60;83.00;;;;;;5087786;28;20689;-57
2023/06/03 10:53:18;;;;;;;2.03;1.00;;;25.70;81.50;;;;;;5083433;28;20221;-58
2023/06/03 10:56:02;;;;;;;2.87;1.10;;;25.50;79.90;;;;;;5092649;28;20238;-58
2023/06/03 10:58:31;;;;;;;2.60;1.00;;;25.30;79.20;;;;;;5092375;28;20235;-57
2023/06/03 11:01:00;;;;;;;1.70;0.77;;;25.50;81.30;;;;;;5090880;28;20249;-57
2023/06/03 11:03:29;;;;;;;3.10;1.00;;;25.10;80.80;;;;;;5089461;28;20309;-58
2023/06/03 11:06:28;;;;;;;1.93;0.90;;;24.70;79.70;;;;;;5093994;28;20802;-58
2023/06/03 11:09:03;;;;;;;2.20;0.87;;;24.80;82.50;;;;;;5090972;28;20227;-57
2023/06/03 11:12:03;;;;;;;1.23;0.80;;;24.70;80.50;;;;;;5089273;28;20241;-57
2023/06/03 11:14:56;;;;;;;3.67;0.97;;;25.10;82.00;;;;;;5079812;28;20230;-52
2023/06/03 11:17:27;;;;;;;2.77;0.87;;;25.20;80.80;;;;;;5067869;28;20765;-57
2023/06/03 11:19:57;;;;;;;1.10;0.77;;;25.80;82.70;;;;;;5069871;28;20736;-52
2023/06/03 11:22:45;;;;;;;2.27;0.90;;;26.00;81.90;;;;;;5069610;28;20640;-53
2023/06/03 11:25:31;;;;;;;1.47;0.80;;;26.10;77.70;;;;;;5074593;28;20233;-55
2023/06/03 11:28:34;;;;;;;2.60;0.97;;;26.30;78.80;;;;;;5071310;28;20600;-58
2023/06/03 11:31:07;;;;;;;1.93;0.83;;;25.90;78.30;;;;;;5069826;28;20242;-54
2023/06/03 11:33:36;;;;;;;1.10;0.97;;;25.90;74.80;;;;;;5069519;28;20221;-55
2023/06/03 11:36:57;;;;;;;1.60;0.70;;;25.40;74.90;;;;;;5069005;28;20230;-55
2023/06/03 11:39:25;;;;;;;1.50;1.00;;;25.60;76.60;;;;;;5069253;28;20232;-56
2023/06/03 11:42:02;;;;;;;1.37;0.80;;;25.90;77.20;;;;;;5067444;28;20655;-57
2023/06/03 11:44:31;;;;;;;2.80;0.90;;;26.00;74.90;;;;;;5071491;28;20835;-56
2023/06/03 11:47:03;;;;;;;2.20;1.07;;;25.90;73.90;;;;;;5070768;28;20232;-56
2023/06/03 11:49:37;;;;;;;1.33;0.90;;;25.60;73.30;;;;;;5061568;28;20230;-55
2023/06/03 11:52:07;;;;;;;1.87;0.90;;;25.20;73.40;;;;;;5071368;28;20232;-57
2023/06/03 11:54:36;;;;;;;2.00;0.80;;;25.00;73.90;;;;;;5069523;28;20642;-57
2023/06/03 11:57:08;;;;;;;2.27;0.77;;;25.20;74.60;;;;;;5073625;28;20278;-54
2023/06/03 11:59:41;;;;;;;1.90;1.00;;;25.40;75.00;;;;;;5061084;28;20237;-56
2023/06/03 12:02:10;;;;;;;1.10;0.90;;;25.20;74.90;;;;;;5069178;28;20236;-53
2023/06/03 12:04:38;;;;;;;4.03;0.80;;;25.00;73.10;;;;;;5071491;28;20232;-55
2023/06/03 12:07:11;;;;;;;1.10;0.80;;;24.70;74.60;;;;;;5070151;28;20321;-56
2023/06/03 12:09:39;;;;;;;2.47;0.80;;;24.10;76.40;;;;;;5067858;28;20317;-56
2023/06/03 12:12:11;;;;;;;2.37;1.00;;;23.90;77.50;;;;;;5068442;28;20236;-55
2023/06/03 12:14:41;;;;;;;2.50;0.90;;;23.90;77.40;;;;;;5069149;28;20237;-56
2023/06/03 12:17:12;;;;;;;2.50;0.90;;;23.90;80.20;;;;;;5070900;28;20240;-52
2023/06/03 12:19:45;;;;;;;2.13;0.73;;;24.10;76.50;;;;;;5069443;28;20714;-56
2023/06/03 12:22:14;;;;;;;0.80;0.80;;;24.10;77.30;;;;;;5070577;28;20246;-55
2023/06/03 12:24:44;;;;;;;1.90;0.93;;;24.00;75.90;;;;;;5070508;28;20243;-58
2023/06/03 12:27:24;;;;;;;1.60;0.93;;;23.50;75.90;;;;;;5070520;28;20230;-56
2023/06/03 12:29:54;;;;;;;1.20;0.80;;;23.50;77.20;;;;;;5069787;28;20248;-57
2023/06/03 12:32:23;;;;;;;1.40;0.90;;;23.60;78.00;;;;;;5062369;28;20507;-57
2023/06/03 12:34:51;;;;;;;1.93;0.90;;;23.70;78.50;;;;;;5060895;28;20260;-55
2023/06/03 12:37:28;;;;;;;1.13;0.93;;;23.50;76.60;;;;;;5062529;28;21110;-57
2023/06/03 12:39:56;;;;;;;2.00;0.77;;;23.50;78.70;;;;;;5061909;28;20329;-54
2023/06/03 12:42:37;;;;;;;2.17;0.60;;;23.50;78.00;;;;;;5061342;28;20239;-50
2023/06/03 12:45:06;;;;;;;1.17;0.73;;;23.50;79.50;;;;;;5043150;28;20231;-56
2023/06/03 12:47:45;;;;;;;1.50;0.77;;;23.60;79.60;;;;;;5061443;28;20711;-57
2023/06/03 12:50:15;;;;;;;1.93;0.70;;;23.50;79.00;;;;;;5062015;28;20297;-55
2023/06/03 12:52:43;;;;;;;3.33;0.70;;;23.40;77.30;;;;;;5060708;28;20238;-56
2023/06/03 12:55:14;;;;;;;1.60;0.97;;;23.00;78.90;;;;;;5061669;28;20576;-55
2023/06/03 12:57:44;;;;;;;1.53;0.70;;;22.80;80.40;;;;;;5062173;28;20318;-57
2023/06/03 13:00:15;;;;;;;2.00;0.83;;;22.70;81.30;;;;;;5061136;28;20231;-53
2023/06/03 13:02:47;;;;;;;1.47;0.80;;;22.80;84.90;;;;;;5060026;28;20790;-56
2023/06/03 13:05:16;;;;;;;2.33;0.90;;;22.70;78.80;;;;;;5061873;28;20234;-55
2023/06/03 13:07:45;;;;;;;4.60;1.03;;;22.70;79.80;;;;;;5062002;28;20237;-57
2023/06/03 13:10:15;;;;;;;2.50;0.80;;;22.60;79.50;;;;;;5043313;28;20227;-56